sensor_id;sensor_type;location;lat;lon;timestamp;temperature;humidity
45233;DHT22;30969;51.052;17.056;2023-02-10T00:02:55;-1.00;71.30
45233;DHT22;30969;51.052;17.056;2023-02-10T00:07:59;-0.50;68.00
45233;DHT22;30969;51.052;17.056;2023-02-10T00:13:02;-0.10;65.90
45233;DHT22;30969;51.052;17.056;2023-02-10T00:18:07;0.30;64.60
45233;DHT22;30969;51.052;17.056;2023-02-10T00:23:11;0.60;63.50
45233;DHT22;30969;51.052;17.056;2023-02-10T00:28:14;0.80;62.90
45233;DHT22;30969;51.052;17.056;2023-02-10T00:33:19;0.90;62.40
45233;DHT22;30969;51.052;17.056;2023-02-10T00:38:22;1.10;62.30
45233;DHT22;30969;51.052;17.056;2023-02-10T00:43:26;1.20;61.80
45233;DHT22;30969;51.052;17.056;2023-02-10T00:48:31;1.30;61.50
45233;DHT22;30969;51.052;17.056;2023-02-10T00:53:35;1.40;61.30
45233;DHT22;30969;51.052;17.056;2023-02-10T00:58:39;1.50;61.00
45233;DHT22;30969;51.052;17.056;2023-02-10T01:03:43;1.60;60.80
45233;DHT22;30969;51.052;17.056;2023-02-10T01:08:48;1.70;60.60
45233;DHT22;30969;51.052;17.056;2023-02-10T01:13:51;1.80;60.40
45233;DHT22;30969;51.052;17.056;2023-02-10T01:18:58;1.90;60.20
45233;DHT22;30969;51.052;17.056;2023-02-10T01:24:02;1.90;59.90
45233;DHT22;30969;51.052;17.056;2023-02-10T01:29:06;2.00;59.60
45233;DHT22;30969;51.052;17.056;2023-02-10T01:34:11;2.10;59.50
45233;DHT22;30969;51.052;17.056;2023-02-10T01:39:15;2.20;59.20
45233;DHT22;30969;51.052;17.056;2023-02-10T01:50:01;2.20;58.90
45233;DHT22;30969;51.052;17.056;2023-02-10T01:55:07;2.20;58.80
45233;DHT22;30969;51.052;17.056;2023-02-10T02:00:12;2.20;58.60
45233;DHT22;30969;51.052;17.056;2023-02-10T02:05:22;2.20;58.60
45233;DHT22;30969;51.052;17.056;2023-02-10T02:10:53;2.20;58.50
45233;DHT22;30969;51.052;17.056;2023-02-10T02:16:03;2.20;58.60
45233;DHT22;30969;51.052;17.056;2023-02-10T02:27:24;2.20;58.30
45233;DHT22;30969;51.052;17.056;2023-02-10T02:32:35;2.20;58.40
45233;DHT22;30969;51.052;17.056;2023-02-10T02:37:41;2.20;58.30
45233;DHT22;30969;51.052;17.056;2023-02-10T02:42:46;2.20;58.20
45233;DHT22;30969;51.052;17.056;2023-02-10T02:48:11;2.30;58.00
45233;DHT22;30969;51.052;17.056;2023-02-10T02:53:23;2.30;58.00
45233;DHT22;30969;51.052;17.056;2023-02-10T02:58:35;2.30;57.90
45233;DHT22;30969;51.052;17.056;2023-02-10T03:03:44;2.30;57.80
45233;DHT22;30969;51.052;17.056;2023-02-10T03:08:48;2.40;57.70
45233;DHT22;30969;51.052;17.056;2023-02-10T03:13:51;2.40;57.60
45233;DHT22;30969;51.052;17.056;2023-02-10T03:18:56;2.40;57.50
45233;DHT22;30969;51.052;17.056;2023-02-10T03:23:59;2.40;57.40
45233;DHT22;30969;51.052;17.056;2023-02-10T03:29:04;2.40;57.50
45233;DHT22;30969;51.052;17.056;2023-02-10T03:34:09;2.30;57.60
45233;DHT22;30969;51.052;17.056;2023-02-10T03:39:13;2.40;57.60
45233;DHT22;30969;51.052;17.056;2023-02-10T03:44:16;2.40;57.50
45233;DHT22;30969;51.052;17.056;2023-02-10T03:49:21;2.30;57.50
45233;DHT22;30969;51.052;17.056;2023-02-10T03:54:24;2.30;57.50
45233;DHT22;30969;51.052;17.056;2023-02-10T03:59:28;2.40;57.50
45233;DHT22;30969;51.052;17.056;2023-02-10T04:04:33;2.40;57.40
45233;DHT22;30969;51.052;17.056;2023-02-10T04:09:36;2.40;57.40
45233;DHT22;30969;51.052;17.056;2023-02-10T04:14:39;2.40;57.40
45233;DHT22;30969;51.052;17.056;2023-02-10T04:19:44;2.40;57.40
45233;DHT22;30969;51.052;17.056;2023-02-10T04:24:48;2.40;57.40
45233;DHT22;30969;51.052;17.056;2023-02-10T04:29:51;2.40;57.40
45233;DHT22;30969;51.052;17.056;2023-02-10T04:34:56;2.40;57.40
45233;DHT22;30969;51.052;17.056;2023-02-10T04:39:59;2.30;57.40
45233;DHT22;30969;51.052;17.056;2023-02-10T04:45:03;2.30;57.30
45233;DHT22;30969;51.052;17.056;2023-02-10T04:50:08;2.30;57.30
45233;DHT22;30969;51.052;17.056;2023-02-10T04:55:12;2.30;57.20
45233;DHT22;30969;51.052;17.056;2023-02-10T05:00:15;2.20;57.20
45233;DHT22;30969;51.052;17.056;2023-02-10T05:05:20;2.20;57.30
45233;DHT22;30969;51.052;17.056;2023-02-10T05:10:25;2.20;57.30
45233;DHT22;30969;51.052;17.056;2023-02-10T05:15:30;2.20;57.10
45233;DHT22;30969;51.052;17.056;2023-02-10T05:20:35;2.10;57.10
45233;DHT22;30969;51.052;17.056;2023-02-10T05:25:38;2.10;57.20
45233;DHT22;30969;51.052;17.056;2023-02-10T05:30:42;2.00;57.20
45233;DHT22;30969;51.052;17.056;2023-02-10T05:35:47;2.00;57.50
45233;DHT22;30969;51.052;17.056;2023-02-10T05:40:50;2.00;57.70
45233;DHT22;30969;51.052;17.056;2023-02-10T05:45:54;2.10;57.80
45233;DHT22;30969;51.052;17.056;2023-02-10T05:50:59;2.10;57.70
45233;DHT22;30969;51.052;17.056;2023-02-10T05:56:02;2.10;57.80
45233;DHT22;30969;51.052;17.056;2023-02-10T06:01:06;2.10;58.00
45233;DHT22;30969;51.052;17.056;2023-02-10T06:06:11;2.20;58.00
45233;DHT22;30969;51.052;17.056;2023-02-10T06:11:15;2.30;58.00
45233;DHT22;30969;51.052;17.056;2023-02-10T06:16:18;2.30;57.90
45233;DHT22;30969;51.052;17.056;2023-02-10T06:21:23;2.40;57.80
45233;DHT22;30969;51.052;17.056;2023-02-10T06:26:27;2.30;57.70
45233;DHT22;30969;51.052;17.056;2023-02-10T06:31:31;2.40;57.90
45233;DHT22;30969;51.052;17.056;2023-02-10T06:36:36;2.40;58.10
45233;DHT22;30969;51.052;17.056;2023-02-10T06:41:40;2.30;58.20
45233;DHT22;30969;51.052;17.056;2023-02-10T06:46:44;2.20;58.70
45233;DHT22;30969;51.052;17.056;2023-02-10T06:51:49;2.30;58.70
45233;DHT22;30969;51.052;17.056;2023-02-10T06:56:53;2.30;58.70
45233;DHT22;30969;51.052;17.056;2023-02-10T07:01:57;2.20;58.90
45233;DHT22;30969;51.052;17.056;2023-02-10T07:07:04;2.10;58.90
45233;DHT22;30969;51.052;17.056;2023-02-10T07:12:09;2.00;59.00
45233;DHT22;30969;51.052;17.056;2023-02-10T07:17:13;2.10;59.20
45233;DHT22;30969;51.052;17.056;2023-02-10T07:22:18;2.20;59.20
45233;DHT22;30969;51.052;17.056;2023-02-10T07:27:23;2.20;58.90
45233;DHT22;30969;51.052;17.056;2023-02-10T07:32:27;2.30;58.80
45233;DHT22;30969;51.052;17.056;2023-02-10T07:37:33;2.30;58.80
45233;DHT22;30969;51.052;17.056;2023-02-10T07:42:37;2.30;59.20
45233;DHT22;30969;51.052;17.056;2023-02-10T07:47:41;2.40;59.30
45233;DHT22;30969;51.052;17.056;2023-02-10T07:52:46;2.40;59.30
45233;DHT22;30969;51.052;17.056;2023-02-10T07:57:51;2.60;59.30
45233;DHT22;30969;51.052;17.056;2023-02-10T08:02:55;2.50;59.00
45233;DHT22;30969;51.052;17.056;2023-02-10T08:08:00;2.50;59.30
45233;DHT22;30969;51.052;17.056;2023-02-10T08:13:04;2.60;59.70
45233;DHT22;30969;51.052;17.056;2023-02-10T08:18:07;2.50;59.80
45233;DHT22;30969;51.052;17.056;2023-02-10T08:23:14;2.60;60.30
45233;DHT22;30969;51.052;17.056;2023-02-10T08:28:19;2.70;60.80
45233;DHT22;30969;51.052;17.056;2023-02-10T08:33:22;2.80;61.30
45233;DHT22;30969;51.052;17.056;2023-02-10T08:38:31;2.90;61.70
45233;DHT22;30969;51.052;17.056;2023-02-10T08:43:34;3.00;62.40
45233;DHT22;30969;51.052;17.056;2023-02-10T08:48:38;3.00;62.90
45233;DHT22;30969;51.052;17.056;2023-02-10T08:53:43;3.00;63.40
45233;DHT22;30969;51.052;17.056;2023-02-10T08:58:48;3.10;63.90
45233;DHT22;30969;51.052;17.056;2023-02-10T09:03:52;3.20;64.00
45233;DHT22;30969;51.052;17.056;2023-02-10T09:08:58;3.30;64.00
45233;DHT22;30969;51.052;17.056;2023-02-10T09:14:02;3.30;64.50
45233;DHT22;30969;51.052;17.056;2023-02-10T09:19:06;3.40;64.80
45233;DHT22;30969;51.052;17.056;2023-02-10T09:24:11;3.50;65.30
45233;DHT22;30969;51.052;17.056;2023-02-10T09:29:15;3.70;66.40
45233;DHT22;30969;51.052;17.056;2023-02-10T09:34:19;3.80;67.30
45233;DHT22;30969;51.052;17.056;2023-02-10T09:39:24;3.90;67.60
45233;DHT22;30969;51.052;17.056;2023-02-10T09:44:33;4.00;67.90
45233;DHT22;30969;51.052;17.056;2023-02-10T09:49:49;3.90;68.60
45233;DHT22;30969;51.052;17.056;2023-02-10T09:54:57;4.10;68.30
45233;DHT22;30969;51.052;17.056;2023-02-10T10:00:03;4.10;68.30
45233;DHT22;30969;51.052;17.056;2023-02-10T10:05:19;4.10;68.90
45233;DHT22;30969;51.052;17.056;2023-02-10T10:10:30;4.20;69.20
45233;DHT22;30969;51.052;17.056;2023-02-10T10:15:41;4.40;69.00
45233;DHT22;30969;51.052;17.056;2023-02-10T10:20:52;4.50;68.90
45233;DHT22;30969;51.052;17.056;2023-02-10T10:26:06;4.50;68.90
45233;DHT22;30969;51.052;17.056;2023-02-10T10:31:21;4.60;68.90
45233;DHT22;30969;51.052;17.056;2023-02-10T10:36:33;4.80;68.50
45233;DHT22;30969;51.052;17.056;2023-02-10T10:41:38;4.80;68.40
45233;DHT22;30969;51.052;17.056;2023-02-10T10:46:47;4.80;68.30
45233;DHT22;30969;51.052;17.056;2023-02-10T10:51:52;4.90;68.00
45233;DHT22;30969;51.052;17.056;2023-02-10T10:57:02;5.10;67.50
45233;DHT22;30969;51.052;17.056;2023-02-10T11:02:11;5.10;66.90
45233;DHT22;30969;51.052;17.056;2023-02-10T11:07:19;5.10;66.80
45233;DHT22;30969;51.052;17.056;2023-02-10T11:12:30;5.10;66.40
45233;DHT22;30969;51.052;17.056;2023-02-10T11:17:36;5.10;66.90
45233;DHT22;30969;51.052;17.056;2023-02-10T11:22:43;5.20;66.60
45233;DHT22;30969;51.052;17.056;2023-02-10T11:27:51;5.20;66.60
45233;DHT22;30969;51.052;17.056;2023-02-10T11:32:56;5.30;66.60
45233;DHT22;30969;51.052;17.056;2023-02-10T11:38:03;5.40;66.30
45233;DHT22;30969;51.052;17.056;2023-02-10T11:43:12;5.40;65.80
45233;DHT22;30969;51.052;17.056;2023-02-10T11:48:19;5.50;65.60
45233;DHT22;30969;51.052;17.056;2023-02-10T11:53:25;5.50;65.50
45233;DHT22;30969;51.052;17.056;2023-02-10T11:58:46;5.40;65.60
45233;DHT22;30969;51.052;17.056;2023-02-10T12:04:17;5.50;65.40
45233;DHT22;30969;51.052;17.056;2023-02-10T12:09:29;5.50;65.30
45233;DHT22;30969;51.052;17.056;2023-02-10T12:14:45;5.50;65.50
45233;DHT22;30969;51.052;17.056;2023-02-10T12:20:04;5.50;65.70
45233;DHT22;30969;51.052;17.056;2023-02-10T12:25:14;5.60;65.50
45233;DHT22;30969;51.052;17.056;2023-02-10T12:30:29;5.70;65.10
45233;DHT22;30969;51.052;17.056;2023-02-10T12:35:42;5.70;65.10
45233;DHT22;30969;51.052;17.056;2023-02-10T12:40:58;5.70;65.00
45233;DHT22;30969;51.052;17.056;2023-02-10T12:46:12;5.60;65.30
45233;DHT22;30969;51.052;17.056;2023-02-10T12:51:28;5.70;65.40
45233;DHT22;30969;51.052;17.056;2023-02-10T12:56:38;5.90;65.30
45233;DHT22;30969;51.052;17.056;2023-02-10T13:01:49;5.90;65.50
45233;DHT22;30969;51.052;17.056;2023-02-10T13:06:57;5.90;65.40
45233;DHT22;30969;51.052;17.056;2023-02-10T13:12:13;5.80;65.50
45233;DHT22;30969;51.052;17.056;2023-02-10T13:17:19;5.80;66.00
45233;DHT22;30969;51.052;17.056;2023-02-10T13:22:35;5.90;66.00
45233;DHT22;30969;51.052;17.056;2023-02-10T13:27:52;5.90;65.90
45233;DHT22;30969;51.052;17.056;2023-02-10T13:33:08;6.00;65.90
45233;DHT22;30969;51.052;17.056;2023-02-10T13:38:18;6.00;65.90
45233;DHT22;30969;51.052;17.056;2023-02-10T13:43:27;6.00;66.20
45233;DHT22;30969;51.052;17.056;2023-02-10T13:48:35;6.00;66.30
45233;DHT22;30969;51.052;17.056;2023-02-10T13:53:41;6.10;66.40
45233;DHT22;30969;51.052;17.056;2023-02-10T13:58:50;6.10;66.50
45233;DHT22;30969;51.052;17.056;2023-02-10T14:03:56;6.10;66.40
45233;DHT22;30969;51.052;17.056;2023-02-10T14:09:03;6.10;66.00
45233;DHT22;30969;51.052;17.056;2023-02-10T14:14:19;6.20;66.00
45233;DHT22;30969;51.052;17.056;2023-02-10T14:19:33;6.10;66.10
45233;DHT22;30969;51.052;17.056;2023-02-10T14:24:42;6.10;65.90
45233;DHT22;30969;51.052;17.056;2023-02-10T14:29:55;6.10;65.90
45233;DHT22;30969;51.052;17.056;2023-02-10T14:35:02;6.10;65.90
45233;DHT22;30969;51.052;17.056;2023-02-10T14:40:18;6.10;65.70
45233;DHT22;30969;51.052;17.056;2023-02-10T14:45:24;6.10;65.20
45233;DHT22;30969;51.052;17.056;2023-02-10T14:50:31;5.80;65.80
45233;DHT22;30969;51.052;17.056;2023-02-10T14:55:38;5.50;65.00
45233;DHT22;30969;51.052;17.056;2023-02-10T15:00:54;4.80;67.60
45233;DHT22;30969;51.052;17.056;2023-02-10T15:06:00;4.20;70.30
45233;DHT22;30969;51.052;17.056;2023-02-10T15:11:06;3.80;72.40
45233;DHT22;30969;51.052;17.056;2023-02-10T15:16:11;3.80;74.30
45233;DHT22;30969;51.052;17.056;2023-02-10T15:21:31;4.20;73.30
45233;DHT22;30969;51.052;17.056;2023-02-10T15:26:34;4.60;71.50
45233;DHT22;30969;51.052;17.056;2023-02-10T15:31:51;4.90;70.40
45233;DHT22;30969;51.052;17.056;2023-02-10T15:36:59;5.00;69.60
45233;DHT22;30969;51.052;17.056;2023-02-10T15:42:06;5.20;69.00
45233;DHT22;30969;51.052;17.056;2023-02-10T15:47:40;5.30;68.60
45233;DHT22;30969;51.052;17.056;2023-02-10T15:52:47;5.30;68.00
45233;DHT22;30969;51.052;17.056;2023-02-10T15:57:50;5.30;67.60
45233;DHT22;30969;51.052;17.056;2023-02-10T16:02:55;5.20;67.50
45233;DHT22;30969;51.052;17.056;2023-02-10T16:08:03;5.20;67.90
45233;DHT22;30969;51.052;17.056;2023-02-10T16:13:11;5.20;67.50
45233;DHT22;30969;51.052;17.056;2023-02-10T16:18:19;5.10;67.40
45233;DHT22;30969;51.052;17.056;2023-02-10T16:23:24;4.90;67.10
45233;DHT22;30969;51.052;17.056;2023-02-10T16:28:29;4.90;67.50
45233;DHT22;30969;51.052;17.056;2023-02-10T16:33:32;4.80;67.70
45233;DHT22;30969;51.052;17.056;2023-02-10T16:38:38;4.90;67.90
45233;DHT22;30969;51.052;17.056;2023-02-10T16:43:42;4.90;67.60
45233;DHT22;30969;51.052;17.056;2023-02-10T16:48:46;5.00;67.50
45233;DHT22;30969;51.052;17.056;2023-02-10T16:53:51;5.10;67.00
45233;DHT22;30969;51.052;17.056;2023-02-10T16:58:56;5.30;66.70
45233;DHT22;30969;51.052;17.056;2023-02-10T17:04:00;5.30;66.30
45233;DHT22;30969;51.052;17.056;2023-02-10T17:09:05;5.40;66.20
45233;DHT22;30969;51.052;17.056;2023-02-10T17:14:09;5.50;65.90
45233;DHT22;30969;51.052;17.056;2023-02-10T17:19:14;5.60;65.90
45233;DHT22;30969;51.052;17.056;2023-02-10T17:24:19;5.60;65.70
45233;DHT22;30969;51.052;17.056;2023-02-10T17:29:24;5.60;65.50
45233;DHT22;30969;51.052;17.056;2023-02-10T17:34:28;5.70;65.10
45233;DHT22;30969;51.052;17.056;2023-02-10T17:39:37;5.70;65.10
45233;DHT22;30969;51.052;17.056;2023-02-10T17:44:48;5.70;65.30
45233;DHT22;30969;51.052;17.056;2023-02-10T17:49:51;5.80;65.00
45233;DHT22;30969;51.052;17.056;2023-02-10T17:54:56;5.70;64.90
45233;DHT22;30969;51.052;17.056;2023-02-10T18:00:07;5.80;65.00
45233;DHT22;30969;51.052;17.056;2023-02-10T18:05:10;5.70;64.90
45233;DHT22;30969;51.052;17.056;2023-02-10T18:10:15;5.70;64.90
45233;DHT22;30969;51.052;17.056;2023-02-10T18:15:19;5.70;64.90
45233;DHT22;30969;51.052;17.056;2023-02-10T18:20:22;5.70;64.90
45233;DHT22;30969;51.052;17.056;2023-02-10T18:25:27;5.70;64.80
45233;DHT22;30969;51.052;17.056;2023-02-10T18:30:32;5.70;64.50
45233;DHT22;30969;51.052;17.056;2023-02-10T18:35:36;5.60;63.80
45233;DHT22;30969;51.052;17.056;2023-02-10T18:40:42;5.60;63.40
45233;DHT22;30969;51.052;17.056;2023-02-10T18:45:47;5.50;63.70
45233;DHT22;30969;51.052;17.056;2023-02-10T18:50:51;5.50;63.50
45233;DHT22;30969;51.052;17.056;2023-02-10T18:55:56;5.40;63.10
45233;DHT22;30969;51.052;17.056;2023-02-10T19:01:04;5.40;63.50
45233;DHT22;30969;51.052;17.056;2023-02-10T19:06:08;5.40;63.60
45233;DHT22;30969;51.052;17.056;2023-02-10T19:11:14;5.30;63.50
45233;DHT22;30969;51.052;17.056;2023-02-10T19:16:18;5.40;63.60
45233;DHT22;30969;51.052;17.056;2023-02-10T19:21:22;5.30;63.30
45233;DHT22;30969;51.052;17.056;2023-02-10T19:26:27;5.30;63.40
45233;DHT22;30969;51.052;17.056;2023-02-10T19:31:31;5.30;63.60
45233;DHT22;30969;51.052;17.056;2023-02-10T19:36:35;5.30;63.80
45233;DHT22;30969;51.052;17.056;2023-02-10T19:41:41;5.30;63.90
45233;DHT22;30969;51.052;17.056;2023-02-10T19:46:44;5.30;63.90
45233;DHT22;30969;51.052;17.056;2023-02-10T19:51:48;5.30;63.70
45233;DHT22;30969;51.052;17.056;2023-02-10T19:56:53;5.30;63.70
45233;DHT22;30969;51.052;17.056;2023-02-10T20:01:56;5.30;63.50
45233;DHT22;30969;51.052;17.056;2023-02-10T20:07:00;5.20;63.70
45233;DHT22;30969;51.052;17.056;2023-02-10T20:12:05;5.20;63.80
45233;DHT22;30969;51.052;17.056;2023-02-10T20:17:09;5.20;64.00
45233;DHT22;30969;51.052;17.056;2023-02-10T20:22:13;5.20;63.90
45233;DHT22;30969;51.052;17.056;2023-02-10T20:27:17;5.10;63.90
45233;DHT22;30969;51.052;17.056;2023-02-10T20:32:24;5.10;64.00
45233;DHT22;30969;51.052;17.056;2023-02-10T20:37:28;5.10;64.00
45233;DHT22;30969;51.052;17.056;2023-02-10T20:42:32;5.10;64.00
45233;DHT22;30969;51.052;17.056;2023-02-10T20:47:36;5.10;64.00
45233;DHT22;30969;51.052;17.056;2023-02-10T20:52:39;5.00;63.90
45233;DHT22;30969;51.052;17.056;2023-02-10T20:57:46;4.20;64.20
45233;DHT22;30969;51.052;17.056;2023-02-10T21:02:49;3.10;68.00
45233;DHT22;30969;51.052;17.056;2023-02-10T21:07:53;2.30;71.50
45233;DHT22;30969;51.052;17.056;2023-02-10T21:12:58;1.80;74.20
45233;DHT22;30969;51.052;17.056;2023-02-10T21:18:02;1.70;75.50
45233;DHT22;30969;51.052;17.056;2023-02-10T21:23:06;1.40;76.20
45233;DHT22;30969;51.052;17.056;2023-02-10T21:28:11;1.20;76.90
45233;DHT22;30969;51.052;17.056;2023-02-10T21:33:15;1.00;78.20
45233;DHT22;30969;51.052;17.056;2023-02-10T21:38:20;0.90;79.40
45233;DHT22;30969;51.052;17.056;2023-02-10T21:43:25;0.90;80.30
45233;DHT22;30969;51.052;17.056;2023-02-10T21:48:29;0.90;80.30
45233;DHT22;30969;51.052;17.056;2023-02-10T21:53:32;0.90;80.40
45233;DHT22;30969;51.052;17.056;2023-02-10T21:58:37;0.80;80.40
45233;DHT22;30969;51.052;17.056;2023-02-10T22:03:41;0.80;80.60
45233;DHT22;30969;51.052;17.056;2023-02-10T22:08:45;1.00;81.00
45233;DHT22;30969;51.052;17.056;2023-02-10T22:13:50;1.50;78.90
45233;DHT22;30969;51.052;17.056;2023-02-10T22:18:53;1.80;77.30
45233;DHT22;30969;51.052;17.056;2023-02-10T22:23:56;2.10;76.20
45233;DHT22;30969;51.052;17.056;2023-02-10T22:29:02;2.30;75.20
45233;DHT22;30969;51.052;17.056;2023-02-10T22:34:06;2.60;74.50
45233;DHT22;30969;51.052;17.056;2023-02-10T22:39:10;2.70;73.90
45233;DHT22;30969;51.052;17.056;2023-02-10T22:44:15;2.90;74.30
45233;DHT22;30969;51.052;17.056;2023-02-10T22:49:19;3.00;72.80
45233;DHT22;30969;51.052;17.056;2023-02-10T22:54:22;3.10;72.40
45233;DHT22;30969;51.052;17.056;2023-02-10T22:59:27;3.20;72.10
45233;DHT22;30969;51.052;17.056;2023-02-10T23:04:31;3.20;71.80
45233;DHT22;30969;51.052;17.056;2023-02-10T23:09:34;3.30;71.80
45233;DHT22;30969;51.052;17.056;2023-02-10T23:14:39;3.40;71.50
45233;DHT22;30969;51.052;17.056;2023-02-10T23:19:42;3.40;71.20
45233;DHT22;30969;51.052;17.056;2023-02-10T23:24:46;3.50;71.10
45233;DHT22;30969;51.052;17.056;2023-02-10T23:29:55;3.50;70.90
45233;DHT22;30969;51.052;17.056;2023-02-10T23:34:59;3.60;70.60
45233;DHT22;30969;51.052;17.056;2023-02-10T23:40:03;3.70;70.50
45233;DHT22;30969;51.052;17.056;2023-02-10T23:45:08;3.70;70.30
45233;DHT22;30969;51.052;17.056;2023-02-10T23:50:12;3.80;70.30
45233;DHT22;30969;51.052;17.056;2023-02-10T23:55:15;3.80;70.10
